Drayton Valley, Canada
Current Conditions -  °F | °C
As of 7:00 PM on Tuesday 25 Nov 2014 (Local Time) from CWSE Reporting Station
Light Snow Light Snow  
Wind Chill: 15°   Ceiling: 1900
Heat Index: 15°   Visibility: 15mi
Dew Point: 11°   Wind: 3mph
Humidity: 84%   Direction: 90°E
Pressure: 30.15"   Gusts: NA
Location:  53.22°N, 114.98°W
Report Text: CWSE 260200Z COR 09003KT 15SM -SN OVC019 M10/M12 A3015 RMK SLP265 LAST OBS/NEXT 261100 UTC SN COV/MUCH LOOSE T10961119 WSI/SWOB
Loading
Personal Weather Stations






























Interactive Weather Map New forecast layout! Learn more

10-Day Weather Forecast

Advertisements
Track Severe Weather on mobile